sensor_id;sensor_type;location;lat;lon;timestamp;pressure;altitude;pressure_sealevel;temperature;humidity
61292;BME280;47165;42.664;23.368;2023-06-22T00:00:19;95442.63;;;23.19;54.33
61292;BME280;47165;42.664;23.368;2023-06-22T00:02:44;95433.97;;;23.17;54.07
61292;BME280;47165;42.664;23.368;2023-06-22T00:05:10;95424.94;;;23.09;54.39
61292;BME280;47165;42.664;23.368;2023-06-22T00:07:35;95437.25;;;23.10;54.13
61292;BME280;47165;42.664;23.368;2023-06-22T00:10:01;95432.13;;;22.99;54.11
61292;BME280;47165;42.664;23.368;2023-06-22T00:12:26;95434.41;;;22.94;53.46
61292;BME280;47165;42.664;23.368;2023-06-22T00:14:51;95432.59;;;22.77;54.40
61292;BME280;47165;42.664;23.368;2023-06-22T00:17:17;95436.22;;;22.76;53.65
61292;BME280;47165;42.664;23.368;2023-06-22T00:19:42;95427.47;;;22.65;53.91
61292;BME280;47165;42.664;23.368;2023-06-22T00:22:08;95421.09;;;22.58;53.30
61292;BME280;47165;42.664;23.368;2023-06-22T00:24:33;95427.25;;;22.59;53.71
61292;BME280;47165;42.664;23.368;2023-06-22T00:26:58;95415.25;;;22.55;54.04
61292;BME280;47165;42.664;23.368;2023-06-22T00:29:24;95408.31;;;22.44;53.27
61292;BME280;47165;42.664;23.368;2023-06-22T00:31:49;95398.28;;;22.38;53.54
61292;BME280;47165;42.664;23.368;2023-06-22T00:34:15;95405.16;;;22.30;54.04
61292;BME280;47165;42.664;23.368;2023-06-22T00:36:41;95414.25;;;22.38;53.28
61292;BME280;47165;42.664;23.368;2023-06-22T00:39:06;95402.38;;;22.32;53.32
61292;BME280;47165;42.664;23.368;2023-06-22T00:41:32;95413.19;;;22.48;53.52
61292;BME280;47165;42.664;23.368;2023-06-22T00:43:58;95406.03;;;22.49;53.36
61292;BME280;47165;42.664;23.368;2023-06-22T00:46:24;95405.06;;;22.50;53.70
61292;BME280;47165;42.664;23.368;2023-06-22T00:48:51;95396.47;;;22.56;53.89
61292;BME280;47165;42.664;23.368;2023-06-22T00:51:17;95395.75;;;22.36;53.99
61292;BME280;47165;42.664;23.368;2023-06-22T00:53:43;95403.38;;;22.49;53.79
61292;BME280;47165;42.664;23.368;2023-06-22T00:56:08;95418.97;;;22.44;54.69
61292;BME280;47165;42.664;23.368;2023-06-22T00:58:38;95412.88;;;22.34;55.30
61292;BME280;47165;42.664;23.368;2023-06-22T01:01:06;95403.94;;;22.25;55.04
61292;BME280;47165;42.664;23.368;2023-06-22T01:03:32;95405.84;;;22.33;54.30
61292;BME280;47165;42.664;23.368;2023-06-22T01:06:02;95414.25;;;22.38;54.18
61292;BME280;47165;42.664;23.368;2023-06-22T01:11:12;95422.91;;;22.40;54.35
61292;BME280;47165;42.664;23.368;2023-06-22T01:13:46;95423.50;;;22.34;54.42
61292;BME280;47165;42.664;23.368;2023-06-22T01:16:16;95413.75;;;22.24;54.75
61292;BME280;47165;42.664;23.368;2023-06-22T01:18:44;95410.38;;;22.22;53.96
61292;BME280;47165;42.664;23.368;2023-06-22T01:21:15;95421.28;;;22.29;54.01
61292;BME280;47165;42.664;23.368;2023-06-22T01:28:55;95418.19;;;22.34;54.92
61292;BME280;47165;42.664;23.368;2023-06-22T01:31:26;95426.84;;;22.36;55.01
61292;BME280;47165;42.664;23.368;2023-06-22T01:33:58;95434.94;;;22.44;54.49
61292;BME280;47165;42.664;23.368;2023-06-22T01:36:25;95429.94;;;22.31;54.30
61292;BME280;47165;42.664;23.368;2023-06-22T01:38:52;95434.06;;;22.25;54.72
61292;BME280;47165;42.664;23.368;2023-06-22T01:41:19;95420.19;;;22.22;55.14
61292;BME280;47165;42.664;23.368;2023-06-22T01:43:45;95423.41;;;22.25;55.22
61292;BME280;47165;42.664;23.368;2023-06-22T01:46:11;95433.38;;;22.23;55.43
61292;BME280;47165;42.664;23.368;2023-06-22T01:48:38;95432.69;;;22.39;54.94
61292;BME280;47165;42.664;23.368;2023-06-22T01:51:04;95440.06;;;22.27;55.52
61292;BME280;47165;42.664;23.368;2023-06-22T01:55:56;95438.16;;;22.10;56.39
61292;BME280;47165;42.664;23.368;2023-06-22T01:58:25;95443.31;;;22.12;56.41
61292;BME280;47165;42.664;23.368;2023-06-22T02:00:56;95443.78;;;22.07;56.49
61292;BME280;47165;42.664;23.368;2023-06-22T02:05:58;95448.25;;;22.06;56.69
61292;BME280;47165;42.664;23.368;2023-06-22T02:10:55;95448.69;;;22.02;56.70
61292;BME280;47165;42.664;23.368;2023-06-22T02:13:24;95453.72;;;22.05;56.78
61292;BME280;47165;42.664;23.368;2023-06-22T02:15:50;95449.94;;;22.07;56.67
61292;BME280;47165;42.664;23.368;2023-06-22T02:18:16;95453.34;;;21.90;57.37
61292;BME280;47165;42.664;23.368;2023-06-22T02:20:41;95438.53;;;21.87;57.25
61292;BME280;47165;42.664;23.368;2023-06-22T02:23:07;95433.22;;;21.87;57.64
61292;BME280;47165;42.664;23.368;2023-06-22T02:25:33;95437.03;;;21.75;57.72
61292;BME280;47165;42.664;23.368;2023-06-22T02:27:59;95444.72;;;21.78;57.58
61292;BME280;47165;42.664;23.368;2023-06-22T02:30:24;95443.06;;;21.67;57.84
61292;BME280;47165;42.664;23.368;2023-06-22T02:32:49;95435.97;;;21.68;58.00
61292;BME280;47165;42.664;23.368;2023-06-22T02:35:24;95432.19;;;21.61;57.84
61292;BME280;47165;42.664;23.368;2023-06-22T02:37:49;95429.53;;;21.61;57.88
61292;BME280;47165;42.664;23.368;2023-06-22T02:40:17;95443.66;;;21.61;58.17
61292;BME280;47165;42.664;23.368;2023-06-22T02:42:42;95436.38;;;21.63;57.96
61292;BME280;47165;42.664;23.368;2023-06-22T02:45:08;95438.88;;;21.75;57.22
61292;BME280;47165;42.664;23.368;2023-06-22T02:47:33;95437.47;;;21.70;57.69
61292;BME280;47165;42.664;23.368;2023-06-22T02:49:59;95433.31;;;21.68;57.62
61292;BME280;47165;42.664;23.368;2023-06-22T02:52:24;95447.56;;;21.67;58.13
61292;BME280;47165;42.664;23.368;2023-06-22T02:54:50;95447.84;;;21.64;58.05
61292;BME280;47165;42.664;23.368;2023-06-22T02:57:15;95449.41;;;21.57;58.66
61292;BME280;47165;42.664;23.368;2023-06-22T02:59:41;95445.34;;;21.53;59.51
61292;BME280;47165;42.664;23.368;2023-06-22T03:02:07;95442.00;;;21.50;59.65
61292;BME280;47165;42.664;23.368;2023-06-22T03:04:34;95444.97;;;21.47;58.74
61292;BME280;47165;42.664;23.368;2023-06-22T03:06:59;95454.72;;;21.47;58.82
61292;BME280;47165;42.664;23.368;2023-06-22T03:09:27;95450.81;;;21.32;59.08
61292;BME280;47165;42.664;23.368;2023-06-22T03:11:55;95442.72;;;21.23;59.22
61292;BME280;47165;42.664;23.368;2023-06-22T03:14:21;95447.91;;;21.25;59.04
61292;BME280;47165;42.664;23.368;2023-06-22T03:16:47;95459.63;;;21.32;58.64
61292;BME280;47165;42.664;23.368;2023-06-22T03:19:13;95466.91;;;21.20;59.32
61292;BME280;47165;42.664;23.368;2023-06-22T03:21:39;95463.28;;;21.21;58.55
61292;BME280;47165;42.664;23.368;2023-06-22T03:24:05;95476.25;;;21.24;58.51
61292;BME280;47165;42.664;23.368;2023-06-22T03:26:31;95469.44;;;21.22;58.37
61292;BME280;47165;42.664;23.368;2023-06-22T03:28:57;95474.59;;;21.33;58.14
61292;BME280;47165;42.664;23.368;2023-06-22T03:31:22;95474.88;;;21.49;57.72
61292;BME280;47165;42.664;23.368;2023-06-22T03:33:49;95456.97;;;21.32;58.02
61292;BME280;47165;42.664;23.368;2023-06-22T03:36:15;95477.97;;;21.35;59.03
61292;BME280;47165;42.664;23.368;2023-06-22T03:38:47;95477.53;;;21.30;59.64
61292;BME280;47165;42.664;23.368;2023-06-22T03:41:13;95482.56;;;21.23;59.69
61292;BME280;47165;42.664;23.368;2023-06-22T03:43:39;95481.56;;;21.24;59.69
61292;BME280;47165;42.664;23.368;2023-06-22T03:46:04;95494.03;;;21.34;59.48
61292;BME280;47165;42.664;23.368;2023-06-22T03:50:55;95483.53;;;21.22;59.09
61292;BME280;47165;42.664;23.368;2023-06-22T03:53:20;95491.94;;;21.27;58.90
61292;BME280;47165;42.664;23.368;2023-06-22T03:55:50;95494.72;;;21.26;59.37
61292;BME280;47165;42.664;23.368;2023-06-22T03:58:17;95500.16;;;21.34;59.75
61292;BME280;47165;42.664;23.368;2023-06-22T04:00:53;95495.84;;;21.33;59.62
61292;BME280;47165;42.664;23.368;2023-06-22T04:03:19;95493.72;;;21.37;59.93
61292;BME280;47165;42.664;23.368;2023-06-22T04:05:45;95493.31;;;21.41;59.91
61292;BME280;47165;42.664;23.368;2023-06-22T04:08:14;95499.34;;;21.34;60.25
61292;BME280;47165;42.664;23.368;2023-06-22T04:10:40;95503.53;;;21.36;60.41
61292;BME280;47165;42.664;23.368;2023-06-22T04:13:06;95500.44;;;21.41;60.13
61292;BME280;47165;42.664;23.368;2023-06-22T04:15:32;95490.28;;;21.46;60.17
61292;BME280;47165;42.664;23.368;2023-06-22T04:17:57;95490.41;;;21.54;60.20
61292;BME280;47165;42.664;23.368;2023-06-22T04:20:23;95494.56;;;21.57;60.52
61292;BME280;47165;42.664;23.368;2023-06-22T04:22:54;95484.50;;;21.70;60.06
61292;BME280;47165;42.664;23.368;2023-06-22T04:25:20;95488.38;;;21.76;59.86
61292;BME280;47165;42.664;23.368;2023-06-22T04:27:46;95478.88;;;21.73;59.75
61292;BME280;47165;42.664;23.368;2023-06-22T04:30:12;95476.91;;;21.75;59.99
61292;BME280;47165;42.664;23.368;2023-06-22T04:32:41;95466.16;;;21.67;60.30
61292;BME280;47165;42.664;23.368;2023-06-22T04:35:07;95459.19;;;21.66;60.54
61292;BME280;47165;42.664;23.368;2023-06-22T04:37:33;95471.31;;;21.78;60.19
61292;BME280;47165;42.664;23.368;2023-06-22T04:39:59;95468.50;;;21.80;60.18
61292;BME280;47165;42.664;23.368;2023-06-22T04:42:28;95467.63;;;21.89;60.13
61292;BME280;47165;42.664;23.368;2023-06-22T04:44:53;95471.44;;;21.86;60.11
61292;BME280;47165;42.664;23.368;2023-06-22T04:47:19;95479.09;;;21.89;59.63
61292;BME280;47165;42.664;23.368;2023-06-22T04:49:44;95475.63;;;21.89;59.57
61292;BME280;47165;42.664;23.368;2023-06-22T04:52:12;95476.28;;;22.01;59.26
61292;BME280;47165;42.664;23.368;2023-06-22T04:54:39;95473.34;;;21.94;59.13
61292;BME280;47165;42.664;23.368;2023-06-22T04:57:07;95487.59;;;22.03;59.57
61292;BME280;47165;42.664;23.368;2023-06-22T04:59:37;95498.50;;;22.09;59.30
61292;BME280;47165;42.664;23.368;2023-06-22T05:02:05;95503.94;;;22.08;59.35
61292;BME280;47165;42.664;23.368;2023-06-22T05:06:56;95497.22;;;22.14;58.89
61292;BME280;47165;42.664;23.368;2023-06-22T05:09:21;95498.88;;;22.15;59.14
61292;BME280;47165;42.664;23.368;2023-06-22T05:11:47;95489.34;;;22.22;58.95
61292;BME280;47165;42.664;23.368;2023-06-22T05:14:13;95487.50;;;22.22;59.03
61292;BME280;47165;42.664;23.368;2023-06-22T05:16:40;95484.25;;;20.95;64.49
61292;BME280;47165;42.664;23.368;2023-06-22T05:19:06;95482.19;;;21.85;61.68
61292;BME280;47165;42.664;23.368;2023-06-22T05:21:32;95480.25;;;22.52;58.88
61292;BME280;47165;42.664;23.368;2023-06-22T05:23:58;95479.13;;;22.90;57.30
61292;BME280;47165;42.664;23.368;2023-06-22T05:28:55;95493.09;;;23.38;55.56
61292;BME280;47165;42.664;23.368;2023-06-22T05:31:21;95493.59;;;23.16;56.16
61292;BME280;47165;42.664;23.368;2023-06-22T05:33:47;95488.84;;;23.27;56.30
61292;BME280;47165;42.664;23.368;2023-06-22T05:36:13;95495.47;;;23.23;55.92
61292;BME280;47165;42.664;23.368;2023-06-22T05:38:39;95515.06;;;22.86;56.18
61292;BME280;47165;42.664;23.368;2023-06-22T05:41:06;95506.69;;;22.36;58.81
61292;BME280;47165;42.664;23.368;2023-06-22T05:43:32;95507.28;;;22.10;60.04
61292;BME280;47165;42.664;23.368;2023-06-22T05:45:57;95517.59;;;22.33;59.93
61292;BME280;47165;42.664;23.368;2023-06-22T05:48:23;95522.66;;;22.36;60.23
61292;BME280;47165;42.664;23.368;2023-06-22T05:50:49;95534.09;;;22.46;60.51
61292;BME280;47165;42.664;23.368;2023-06-22T05:53:14;95530.41;;;22.47;60.39
61292;BME280;47165;42.664;23.368;2023-06-22T05:55:40;95528.00;;;22.16;61.24
61292;BME280;47165;42.664;23.368;2023-06-22T05:58:06;95527.19;;;22.06;61.99
61292;BME280;47165;42.664;23.368;2023-06-22T06:00:31;95521.91;;;21.96;62.00
61292;BME280;47165;42.664;23.368;2023-06-22T06:02:58;95519.22;;;22.06;60.77
61292;BME280;47165;42.664;23.368;2023-06-22T06:05:29;95523.91;;;22.32;60.26
61292;BME280;47165;42.664;23.368;2023-06-22T06:07:55;95519.31;;;22.24;60.20
61292;BME280;47165;42.664;23.368;2023-06-22T06:10:20;95510.41;;;22.43;59.68
61292;BME280;47165;42.664;23.368;2023-06-22T06:12:46;95513.56;;;22.56;59.54
61292;BME280;47165;42.664;23.368;2023-06-22T06:15:11;95511.28;;;22.89;58.66
61292;BME280;47165;42.664;23.368;2023-06-22T06:17:45;95504.06;;;23.17;58.09
61292;BME280;47165;42.664;23.368;2023-06-22T06:20:11;95498.66;;;23.09;58.90
61292;BME280;47165;42.664;23.368;2023-06-22T06:22:37;95490.84;;;23.07;58.78
61292;BME280;47165;42.664;23.368;2023-06-22T06:25:02;95488.47;;;23.04;58.64
61292;BME280;47165;42.664;23.368;2023-06-22T06:27:28;95498.44;;;23.38;57.32
61292;BME280;47165;42.664;23.368;2023-06-22T06:29:54;95501.94;;;23.21;58.23
61292;BME280;47165;42.664;23.368;2023-06-22T06:32:19;95497.44;;;23.21;58.88
61292;BME280;47165;42.664;23.368;2023-06-22T06:34:45;95499.19;;;23.30;57.39
61292;BME280;47165;42.664;23.368;2023-06-22T06:37:10;95499.47;;;23.45;57.34
61292;BME280;47165;42.664;23.368;2023-06-22T06:39:35;95495.38;;;23.33;57.22
61292;BME280;47165;42.664;23.368;2023-06-22T06:42:01;95493.88;;;23.30;57.16
61292;BME280;47165;42.664;23.368;2023-06-22T06:44:27;95485.69;;;23.50;56.03
61292;BME280;47165;42.664;23.368;2023-06-22T06:46:53;95482.50;;;23.90;55.24
61292;BME280;47165;42.664;23.368;2023-06-22T06:49:19;95485.41;;;24.05;54.94
61292;BME280;47165;42.664;23.368;2023-06-22T06:51:44;95478.22;;;23.98;55.77
61292;BME280;47165;42.664;23.368;2023-06-22T06:54:10;95484.22;;;24.00;57.00
61292;BME280;47165;42.664;23.368;2023-06-22T06:56:35;95473.59;;;24.08;56.39
61292;BME280;47165;42.664;23.368;2023-06-22T06:59:01;95472.69;;;24.34;55.64
61292;BME280;47165;42.664;23.368;2023-06-22T07:01:27;95468.03;;;24.36;55.11
61292;BME280;47165;42.664;23.368;2023-06-22T07:03:52;95479.53;;;24.36;56.44
61292;BME280;47165;42.664;23.368;2023-06-22T07:06:18;95465.63;;;24.16;56.78
61292;BME280;47165;42.664;23.368;2023-06-22T07:08:44;95470.41;;;24.39;56.54
61292;BME280;47165;42.664;23.368;2023-06-22T07:11:09;95476.84;;;24.62;54.61
61292;BME280;47165;42.664;23.368;2023-06-22T07:13:35;95478.75;;;25.03;53.77
61292;BME280;47165;42.664;23.368;2023-06-22T07:16:00;95476.78;;;25.13;53.70
61292;BME280;47165;42.664;23.368;2023-06-22T07:18:25;95473.63;;;25.42;52.37
61292;BME280;47165;42.664;23.368;2023-06-22T07:20:52;95470.28;;;25.40;52.53
61292;BME280;47165;42.664;23.368;2023-06-22T07:23:17;95472.63;;;25.52;52.46
61292;BME280;47165;42.664;23.368;2023-06-22T07:25:42;95469.59;;;25.14;51.61
61292;BME280;47165;42.664;23.368;2023-06-22T07:28:08;95466.94;;;25.38;52.00
61292;BME280;47165;42.664;23.368;2023-06-22T07:30:33;95472.97;;;25.48;51.69
61292;BME280;47165;42.664;23.368;2023-06-22T07:32:59;95476.00;;;25.37;51.96
61292;BME280;47165;42.664;23.368;2023-06-22T07:35:29;95471.63;;;25.44;51.58
61292;BME280;47165;42.664;23.368;2023-06-22T07:37:55;95476.63;;;25.80;52.64
61292;BME280;47165;42.664;23.368;2023-06-22T07:40:20;95479.59;;;26.02;51.82
61292;BME280;47165;42.664;23.368;2023-06-22T07:42:46;95480.38;;;26.19;50.53
61292;BME280;47165;42.664;23.368;2023-06-22T07:45:13;95483.38;;;26.24;50.06
61292;BME280;47165;42.664;23.368;2023-06-22T07:47:39;95478.53;;;26.27;49.77
61292;BME280;47165;42.664;23.368;2023-06-22T07:50:05;95478.63;;;25.95;50.09
61292;BME280;47165;42.664;23.368;2023-06-22T07:54:55;95476.09;;;26.49;50.86
61292;BME280;47165;42.664;23.368;2023-06-22T07:57:21;95480.66;;;26.80;49.19
61292;BME280;47165;42.664;23.368;2023-06-22T07:59:47;95465.72;;;26.85;49.34
61292;BME280;47165;42.664;23.368;2023-06-22T08:02:12;95470.88;;;26.95;48.78
61292;BME280;47165;42.664;23.368;2023-06-22T08:04:38;95465.63;;;27.02;48.96
61292;BME280;47165;42.664;23.368;2023-06-22T08:07:04;95455.88;;;27.32;48.08
61292;BME280;47165;42.664;23.368;2023-06-22T08:11:55;95453.47;;;27.14;48.58
61292;BME280;47165;42.664;23.368;2023-06-22T08:14:22;95455.97;;;27.16;48.45
61292;BME280;47165;42.664;23.368;2023-06-22T08:16:48;95451.09;;;27.42;48.70
61292;BME280;47165;42.664;23.368;2023-06-22T08:19:13;95446.34;;;27.67;48.25
61292;BME280;47165;42.664;23.368;2023-06-22T08:21:39;95446.84;;;27.86;48.11
61292;BME280;47165;42.664;23.368;2023-06-22T08:24:05;95445.34;;;27.83;47.89
61292;BME280;47165;42.664;23.368;2023-06-22T08:28:55;95435.50;;;27.23;47.45
61292;BME280;47165;42.664;23.368;2023-06-22T08:31:21;95433.13;;;27.28;48.03
61292;BME280;47165;42.664;23.368;2023-06-22T08:33:46;95437.50;;;27.21;46.30
61292;BME280;47165;42.664;23.368;2023-06-22T08:36:12;95429.28;;;27.45;46.53
61292;BME280;47165;42.664;23.368;2023-06-22T08:38:38;95435.84;;;27.43;47.41
61292;BME280;47165;42.664;23.368;2023-06-22T08:41:04;95441.00;;;27.82;47.77
61292;BME280;47165;42.664;23.368;2023-06-22T08:43:29;95441.00;;;27.82;47.13
61292;BME280;47165;42.664;23.368;2023-06-22T08:45:55;95444.13;;;27.71;47.47
61292;BME280;47165;42.664;23.368;2023-06-22T08:48:20;95446.84;;;27.86;46.45
61292;BME280;47165;42.664;23.368;2023-06-22T08:50:46;95445.44;;;27.75;48.47
61292;BME280;47165;42.664;23.368;2023-06-22T08:53:11;95448.91;;;27.99;47.58
61292;BME280;47165;42.664;23.368;2023-06-22T08:55:37;95438.00;;;28.00;47.08
61292;BME280;47165;42.664;23.368;2023-06-22T08:58:02;95433.75;;;28.06;44.99
61292;BME280;47165;42.664;23.368;2023-06-22T09:00:29;95433.53;;;28.22;43.29
61292;BME280;47165;42.664;23.368;2023-06-22T09:02:55;95424.00;;;28.35;42.64
61292;BME280;47165;42.664;23.368;2023-06-22T09:05:24;95418.81;;;28.18;42.94
61292;BME280;47165;42.664;23.368;2023-06-22T09:07:51;95417.16;;;28.02;43.77
61292;BME280;47165;42.664;23.368;2023-06-22T09:10:16;95423.59;;;28.38;43.44
61292;BME280;47165;42.664;23.368;2023-06-22T09:12:42;95422.03;;;28.58;42.46
61292;BME280;47165;42.664;23.368;2023-06-22T09:15:08;95421.03;;;28.59;42.44
61292;BME280;47165;42.664;23.368;2023-06-22T09:17:34;95422.56;;;28.68;42.55
61292;BME280;47165;42.664;23.368;2023-06-22T09:20:00;95423.31;;;28.62;42.79
61292;BME280;47165;42.664;23.368;2023-06-22T09:22:27;95423.34;;;28.84;41.15
61292;BME280;47165;42.664;23.368;2023-06-22T09:24:55;95425.41;;;28.67;40.91
61292;BME280;47165;42.664;23.368;2023-06-22T09:27:21;95419.41;;;28.65;41.96
61292;BME280;47165;42.664;23.368;2023-06-22T09:29:47;95406.59;;;28.82;42.46
61292;BME280;47165;42.664;23.368;2023-06-22T09:32:13;95417.28;;;28.97;39.80
61292;BME280;47165;42.664;23.368;2023-06-22T09:34:38;95426.81;;;28.99;39.23
61292;BME280;47165;42.664;23.368;2023-06-22T09:37:04;95429.50;;;28.99;39.24
61292;BME280;47165;42.664;23.368;2023-06-22T09:39:30;95429.75;;;29.97;37.75
61292;BME280;47165;42.664;23.368;2023-06-22T09:41:58;95424.94;;;30.62;36.65
61292;BME280;47165;42.664;23.368;2023-06-22T09:44:25;95428.00;;;30.18;38.14
61292;BME280;47165;42.664;23.368;2023-06-22T09:46:50;95426.59;;;29.65;39.30
61292;BME280;47165;42.664;23.368;2023-06-22T09:49:16;95423.00;;;29.80;39.58
61292;BME280;47165;42.664;23.368;2023-06-22T09:51:41;95423.06;;;29.86;41.18
61292;BME280;47165;42.664;23.368;2023-06-22T09:54:06;95427.53;;;30.07;39.96
61292;BME280;47165;42.664;23.368;2023-06-22T09:56:32;95416.78;;;29.79;40.40
61292;BME280;47165;42.664;23.368;2023-06-22T09:58:57;95410.75;;;29.77;43.09
61292;BME280;47165;42.664;23.368;2023-06-22T10:01:23;95412.13;;;29.95;43.41
61292;BME280;47165;42.664;23.368;2023-06-22T10:03:52;95408.75;;;29.58;40.26
61292;BME280;47165;42.664;23.368;2023-06-22T10:06:19;95407.56;;;29.67;40.84
61292;BME280;47165;42.664;23.368;2023-06-22T10:08:45;95394.16;;;29.74;39.18
61292;BME280;47165;42.664;23.368;2023-06-22T10:11:10;95401.69;;;29.57;40.63
61292;BME280;47165;42.664;23.368;2023-06-22T10:13:36;95400.94;;;29.69;39.97
61292;BME280;47165;42.664;23.368;2023-06-22T10:16:01;95396.31;;;29.85;39.76
61292;BME280;47165;42.664;23.368;2023-06-22T10:18:27;95401.03;;;30.11;40.73
61292;BME280;47165;42.664;23.368;2023-06-22T10:20:52;95401.38;;;30.30;41.55
61292;BME280;47165;42.664;23.368;2023-06-22T10:23:21;95385.25;;;30.08;37.73
61292;BME280;47165;42.664;23.368;2023-06-22T10:25:47;95387.03;;;29.94;38.01
61292;BME280;47165;42.664;23.368;2023-06-22T10:28:13;95394.06;;;29.88;38.39
61292;BME280;47165;42.664;23.368;2023-06-22T10:30:39;95397.31;;;30.12;40.50
61292;BME280;47165;42.664;23.368;2023-06-22T10:33:09;95392.56;;;30.21;38.92
61292;BME280;47165;42.664;23.368;2023-06-22T10:35:35;95385.34;;;30.21;37.53
61292;BME280;47165;42.664;23.368;2023-06-22T10:38:03;95389.81;;;30.42;38.47
61292;BME280;47165;42.664;23.368;2023-06-22T10:40:28;95384.06;;;30.65;38.92
61292;BME280;47165;42.664;23.368;2023-06-22T10:42:54;95383.06;;;30.86;40.92
61292;BME280;47165;42.664;23.368;2023-06-22T10:45:19;95385.31;;;30.56;41.74
61292;BME280;47165;42.664;23.368;2023-06-22T10:47:45;95381.56;;;30.64;40.53
61292;BME280;47165;42.664;23.368;2023-06-22T10:50:10;95374.53;;;30.56;37.40
61292;BME280;47165;42.664;23.368;2023-06-22T10:52:36;95374.91;;;30.53;38.26
61292;BME280;47165;42.664;23.368;2023-06-22T10:55:02;95372.84;;;30.55;33.90
61292;BME280;47165;42.664;23.368;2023-06-22T10:57:27;95367.00;;;30.38;35.23
61292;BME280;47165;42.664;23.368;2023-06-22T10:59:53;95360.88;;;30.78;36.90
61292;BME280;47165;42.664;23.368;2023-06-22T11:02:18;95368.00;;;31.12;38.68
61292;BME280;47165;42.664;23.368;2023-06-22T11:04:43;95371.97;;;31.10;37.59
61292;BME280;47165;42.664;23.368;2023-06-22T11:07:09;95371.53;;;31.13;34.67
61292;BME280;47165;42.664;23.368;2023-06-22T11:09:34;95363.66;;;31.31;37.45
61292;BME280;47165;42.664;23.368;2023-06-22T11:12:00;95361.78;;;31.25;36.22
61292;BME280;47165;42.664;23.368;2023-06-22T11:14:25;95363.03;;;31.56;34.28
61292;BME280;47165;42.664;23.368;2023-06-22T11:16:51;95366.78;;;31.68;35.83
61292;BME280;47165;42.664;23.368;2023-06-22T11:19:17;95363.00;;;31.82;38.37
61292;BME280;47165;42.664;23.368;2023-06-22T11:21:42;95366.75;;;31.88;37.25
61292;BME280;47165;42.664;23.368;2023-06-22T11:24:08;95359.44;;;31.95;33.84
61292;BME280;47165;42.664;23.368;2023-06-22T11:26:33;95344.94;;;31.90;33.90
61292;BME280;47165;42.664;23.368;2023-06-22T11:28:59;95348.88;;;31.80;34.17
61292;BME280;47165;42.664;23.368;2023-06-22T11:31:24;95341.00;;;31.85;36.33
61292;BME280;47165;42.664;23.368;2023-06-22T11:33:50;95343.53;;;32.39;35.60
61292;BME280;47165;42.664;23.368;2023-06-22T11:36:16;95343.69;;;32.44;36.68
61292;BME280;47165;42.664;23.368;2023-06-22T11:38:42;95334.81;;;32.37;34.63
61292;BME280;47165;42.664;23.368;2023-06-22T11:41:09;95332.00;;;32.63;37.10
61292;BME280;47165;42.664;23.368;2023-06-22T11:43:34;95338.38;;;32.76;36.02
61292;BME280;47165;42.664;23.368;2023-06-22T11:46:02;95331.13;;;32.63;37.29
61292;BME280;47165;42.664;23.368;2023-06-22T11:48:28;95327.22;;;32.07;34.04
61292;BME280;47165;42.664;23.368;2023-06-22T11:50:53;95328.28;;;32.06;34.10
61292;BME280;47165;42.664;23.368;2023-06-22T11:53:21;95325.63;;;32.38;35.14
61292;BME280;47165;42.664;23.368;2023-06-22T11:55:46;95320.47;;;32.30;33.04
61292;BME280;47165;42.664;23.368;2023-06-22T11:58:12;95320.72;;;32.66;34.10
61292;BME280;47165;42.664;23.368;2023-06-22T12:00:38;95311.06;;;32.84;33.33
61292;BME280;47165;42.664;23.368;2023-06-22T12:03:03;95312.47;;;32.55;33.67
61292;BME280;47165;42.664;23.368;2023-06-22T12:05:29;95313.09;;;32.57;31.36
61292;BME280;47165;42.664;23.368;2023-06-22T12:07:55;95328.09;;;32.46;31.99
61292;BME280;47165;42.664;23.368;2023-06-22T12:10:25;95318.69;;;32.62;31.61
61292;BME280;47165;42.664;23.368;2023-06-22T12:12:51;95320.31;;;32.70;31.76
61292;BME280;47165;42.664;23.368;2023-06-22T12:15:17;95332.00;;;32.57;34.17
61292;BME280;47165;42.664;23.368;2023-06-22T12:17:42;95333.16;;;32.29;33.25
61292;BME280;47165;42.664;23.368;2023-06-22T12:20:08;95342.69;;;31.60;34.67
61292;BME280;47165;42.664;23.368;2023-06-22T12:22:34;95329.16;;;30.80;36.99
61292;BME280;47165;42.664;23.368;2023-06-22T12:25:01;95344.94;;;30.21;39.54
61292;BME280;47165;42.664;23.368;2023-06-22T12:27:26;95348.06;;;29.83;39.81
61292;BME280;47165;42.664;23.368;2023-06-22T12:29:52;95345.81;;;29.59;42.20
61292;BME280;47165;42.664;23.368;2023-06-22T12:32:17;95354.50;;;29.61;41.43
61292;BME280;47165;42.664;23.368;2023-06-22T12:34:44;95359.47;;;29.07;41.24
61292;BME280;47165;42.664;23.368;2023-06-22T12:37:10;95371.94;;;28.72;41.15
61292;BME280;47165;42.664;23.368;2023-06-22T12:39:35;95381.69;;;28.95;40.07
61292;BME280;47165;42.664;23.368;2023-06-22T12:42:01;95380.78;;;29.09;39.79
61292;BME280;47165;42.664;23.368;2023-06-22T12:44:26;95397.38;;;29.34;40.27
61292;BME280;47165;42.664;23.368;2023-06-22T12:46:52;95380.47;;;28.97;42.66
61292;BME280;47165;42.664;23.368;2023-06-22T12:49:17;95385.66;;;28.99;43.37
61292;BME280;47165;42.664;23.368;2023-06-22T12:51:43;95395.38;;;29.00;46.14
61292;BME280;47165;42.664;23.368;2023-06-22T12:54:09;95413.38;;;28.78;44.65
61292;BME280;47165;42.664;23.368;2023-06-22T12:56:35;95418.28;;;28.08;46.12
61292;BME280;47165;42.664;23.368;2023-06-22T12:59:00;95424.75;;;28.28;44.88
61292;BME280;47165;42.664;23.368;2023-06-22T13:01:27;95407.44;;;28.16;45.58
61292;BME280;47165;42.664;23.368;2023-06-22T13:03:53;95407.13;;;27.81;46.42
61292;BME280;47165;42.664;23.368;2023-06-22T13:06:19;95411.47;;;27.67;47.02
61292;BME280;47165;42.664;23.368;2023-06-22T13:08:45;95422.84;;;27.55;47.44
61292;BME280;47165;42.664;23.368;2023-06-22T13:11:10;95418.84;;;27.51;49.51
61292;BME280;47165;42.664;23.368;2023-06-22T13:13:36;95414.13;;;27.53;50.62